createdAt,value
2023-03-26T00:01:21.324Z,100.00
2023-03-26T00:03:53.634Z,100.00
2023-03-26T00:06:25.960Z,100.00
2023-03-26T00:08:53.458Z,100.00
2023-03-26T00:11:22.663Z,100.00
2023-03-26T00:13:50.193Z,100.00
2023-03-26T00:16:19.910Z,100.00
2023-03-26T00:18:48.988Z,100.00
2023-03-26T00:21:18.479Z,100.00
2023-03-26T00:23:45.490Z,100.00
2023-03-26T00:26:12.940Z,100.00
2023-03-26T00:28:41.843Z,100.00
2023-03-26T00:31:14.843Z,100.00
2023-03-26T00:33:42.024Z,100.00
2023-03-26T00:36:14.498Z,100.00
2023-03-26T00:38:43.062Z,100.00
2023-03-26T00:41:22.888Z,100.00
2023-03-26T00:43:53.508Z,100.00
2023-03-26T00:46:20.383Z,100.00
2023-03-26T00:48:47.362Z,100.00
2023-03-26T00:51:16.157Z,100.00
2023-03-26T00:53:45.153Z,100.00
2023-03-26T00:56:12.379Z,100.00
2023-03-26T00:58:39.958Z,100.00
2023-03-26T01:01:10.796Z,100.00
2023-03-26T01:03:38.715Z,100.00
2023-03-26T01:06:08.160Z,100.00
2023-03-26T01:08:38.390Z,100.00
2023-03-26T01:11:14.452Z,100.00
2023-03-26T01:13:48.546Z,100.00
2023-03-26T01:16:26.301Z,100.00
2023-03-26T01:18:54.085Z,100.00
2023-03-26T01:21:23.175Z,100.00
2023-03-26T01:24:02.481Z,100.00
2023-03-26T01:26:38.942Z,100.00
2023-03-26T01:29:10.162Z,100.00
2023-03-26T01:31:37.137Z,100.00
2023-03-26T01:34:19.822Z,100.00
2023-03-26T01:37:18.562Z,100.00
2023-03-26T01:39:57.089Z,100.00
2023-03-26T01:42:33.314Z,100.00
2023-03-26T01:45:23.072Z,100.00
2023-03-26T01:47:50.582Z,100.00
2023-03-26T01:50:17.224Z,100.00
2023-03-26T01:52:43.920Z,100.00
2023-03-26T01:55:14.419Z,100.00
2023-03-26T01:57:47.552Z,100.00
2023-03-26T02:00:20.891Z,100.00
2023-03-26T02:03:01.965Z,100.00
2023-03-26T02:05:44.183Z,100.00
2023-03-26T02:08:21.160Z,100.00
2023-03-26T02:10:52.515Z,100.00
2023-03-26T02:13:19.327Z,100.00
2023-03-26T02:16:03.396Z,100.00
2023-03-26T02:18:42.022Z,100.00
2023-03-26T02:21:13.408Z,100.00
2023-03-26T02:23:46.882Z,100.00
2023-03-26T02:26:16.611Z,100.00
2023-03-26T02:28:43.364Z,100.00
2023-03-26T02:31:11.221Z,100.00
2023-03-26T02:33:38.002Z,100.00
2023-03-26T02:36:05.234Z,100.00
2023-03-26T02:38:35.506Z,100.00
2023-03-26T02:41:03.204Z,100.00
2023-03-26T02:43:30.728Z,100.00
2023-03-26T02:45:58.002Z,100.00
2023-03-26T02:48:25.339Z,100.00
2023-03-26T02:50:54.503Z,100.00
2023-03-26T02:53:21.923Z,100.00
2023-03-26T02:55:48.598Z,100.00
2023-03-26T02:58:18.262Z,100.00
2023-03-26T03:00:46.945Z,100.00
2023-03-26T03:03:14.465Z,100.00
2023-03-26T03:05:43.354Z,100.00
2023-03-26T03:08:10.375Z,100.00
2023-03-26T03:10:37.889Z,100.00
2023-03-26T03:13:07.866Z,100.00
2023-03-26T03:15:35.117Z,100.00
2023-03-26T03:18:02.530Z,100.00
2023-03-26T03:20:30.646Z,100.00
2023-03-26T03:22:57.329Z,100.00
2023-03-26T03:25:26.104Z,100.00
2023-03-26T03:27:54.053Z,100.00
2023-03-26T03:30:21.036Z,100.00
2023-03-26T03:32:47.940Z,100.00
2023-03-26T03:35:14.617Z,100.00
2023-03-26T03:37:41.627Z,100.00
2023-03-26T03:40:11.141Z,100.00
2023-03-26T03:42:38.539Z,100.00
2023-03-26T03:45:06.910Z,100.00
2023-03-26T03:47:33.779Z,100.00
2023-03-26T03:50:01.057Z,100.00
2023-03-26T03:52:28.231Z,100.00
2023-03-26T03:55:00.550Z,100.00
2023-03-26T03:57:28.614Z,100.00
2023-03-26T03:59:58.528Z,100.00
2023-03-26T04:02:26.881Z,100.00
2023-03-26T04:04:54.385Z,100.00
2023-03-26T04:07:21.225Z,100.00
2023-03-26T04:09:47.948Z,100.00
2023-03-26T04:12:14.985Z,100.00
2023-03-26T04:14:42.099Z,100.00
2023-03-26T04:17:09.087Z,100.00
2023-03-26T04:19:35.874Z,100.00
2023-03-26T04:22:02.727Z,100.00
2023-03-26T04:24:30.243Z,100.00
2023-03-26T04:27:01.434Z,100.00
2023-03-26T04:29:30.758Z,100.00
2023-03-26T04:32:06.659Z,100.00
2023-03-26T04:34:34.388Z,100.00
2023-03-26T04:37:05.084Z,100.00
2023-03-26T04:39:34.329Z,100.00
2023-03-26T04:42:01.380Z,100.00
2023-03-26T04:44:30.367Z,100.00
2023-03-26T04:46:57.106Z,100.00
2023-03-26T04:49:23.728Z,100.00
2023-03-26T04:51:50.747Z,100.00
2023-03-26T04:54:20.248Z,100.00
2023-03-26T04:57:05.081Z,100.00
2023-03-26T04:59:37.224Z,100.00
2023-03-26T05:02:07.976Z,100.00
2023-03-26T05:04:36.927Z,100.00
2023-03-26T05:07:03.718Z,100.00
2023-03-26T05:09:30.768Z,100.00
2023-03-26T05:11:58.404Z,100.00
2023-03-26T05:14:25.101Z,100.00
2023-03-26T05:16:53.335Z,100.00
2023-03-26T05:19:20.293Z,100.00
2023-03-26T05:21:46.976Z,100.00
2023-03-26T05:24:13.642Z,100.00
2023-03-26T05:26:40.346Z,100.00
2023-03-26T05:29:07.107Z,100.00
2023-03-26T05:31:33.882Z,100.00
2023-03-26T05:34:00.749Z,100.00
2023-03-26T05:36:30.962Z,100.00
2023-03-26T05:38:57.696Z,100.00
2023-03-26T05:41:24.385Z,100.00
2023-03-26T05:43:51.276Z,100.00
2023-03-26T05:46:20.306Z,83.33
2023-03-26T05:48:47.290Z,71.67
2023-03-26T05:51:15.663Z,68.09
2023-03-26T05:53:43.209Z,62.50
2023-03-26T05:56:10.623Z,62.41
2023-03-26T05:58:38.052Z,58.18
2023-03-26T06:01:08.456Z,55.26
2023-03-26T06:03:39.960Z,54.50
2023-03-26T06:06:15.620Z,52.86
2023-03-26T06:08:48.952Z,51.80
2023-03-26T06:11:29.882Z,51.86
2023-03-26T06:13:56.631Z,48.90
2023-03-26T06:16:27.284Z,51.31
2023-03-26T06:18:56.428Z,49.02
2023-03-26T06:21:25.753Z,48.86
2023-03-26T06:23:53.291Z,49.71
2023-03-26T06:26:19.927Z,46.34
2023-03-26T06:28:46.691Z,46.07
2023-03-26T06:31:13.462Z,45.09
2023-03-26T06:33:40.251Z,44.54
2023-03-26T06:36:07.367Z,44.08
2023-03-26T06:38:34.077Z,43.24
2023-03-26T06:41:07.223Z,44.80
2023-03-26T06:43:34.204Z,45.40
2023-03-26T06:46:01.667Z,46.00
2023-03-26T06:48:32.689Z,44.17
2023-03-26T06:50:59.446Z,44.14
2023-03-26T06:53:26.329Z,42.23
2023-03-26T06:55:55.071Z,43.03
2023-03-26T06:58:22.383Z,45.36
2023-03-26T07:00:53.772Z,44.61
2023-03-26T07:03:20.943Z,43.27
2023-03-26T07:05:47.871Z,41.08
2023-03-26T07:08:14.934Z,40.02
2023-03-26T07:10:42.113Z,40.84
2023-03-26T07:13:08.802Z,38.74
2023-03-26T07:15:35.936Z,39.79
2023-03-26T07:18:02.719Z,41.90
2023-03-26T07:20:29.932Z,41.02
2023-03-26T07:22:56.961Z,39.76
2023-03-26T07:25:23.935Z,39.15
2023-03-26T07:28:27.430Z,40.48
2023-03-26T07:31:11.774Z,39.64
2023-03-26T07:33:47.733Z,38.13
2023-03-26T07:36:29.597Z,37.84
2023-03-26T07:39:12.418Z,37.12
2023-03-26T07:41:44.816Z,37.55
2023-03-26T07:44:29.600Z,37.51
2023-03-26T07:46:57.262Z,35.80
2023-03-26T07:49:24.186Z,35.34
2023-03-26T07:51:51.176Z,35.82
2023-03-26T07:54:18.351Z,36.53
2023-03-26T07:56:59.157Z,37.18
2023-03-26T07:59:47.897Z,37.62
2023-03-26T08:02:17.731Z,37.14
2023-03-26T08:05:03.949Z,36.12
2023-03-26T08:07:58.641Z,37.09
2023-03-26T08:10:39.126Z,37.34
2023-03-26T08:13:30.442Z,36.20
2023-03-26T08:16:29.439Z,36.70
2023-03-26T08:19:33.401Z,34.97
2023-03-26T08:22:27.246Z,32.18
2023-03-26T08:25:01.495Z,32.76
2023-03-26T08:27:43.385Z,30.62
2023-03-26T08:30:25.500Z,30.63
2023-03-26T08:32:56.813Z,30.20
2023-03-26T08:35:26.276Z,31.68
2023-03-26T08:37:53.664Z,32.42
2023-03-26T08:41:05.373Z,34.02
2023-03-26T08:44:08.968Z,31.56
2023-03-26T08:47:20.802Z,33.26
2023-03-26T08:50:24.550Z,34.45
2023-03-26T08:52:51.268Z,33.52
2023-03-26T08:55:20.916Z,31.32
2023-03-26T08:57:59.028Z,32.11
2023-03-26T09:01:00.316Z,30.59
2023-03-26T09:04:14.975Z,31.56
2023-03-26T09:07:01.665Z,30.82
2023-03-26T09:10:07.032Z,30.65
2023-03-26T09:12:59.052Z,30.87
2023-03-26T09:16:07.816Z,30.31
2023-03-26T09:19:03.915Z,30.96
2023-03-26T09:22:02.767Z,30.30
2023-03-26T09:25:13.639Z,30.70
2023-03-26T09:28:12.025Z,29.82
2023-03-26T09:31:11.849Z,31.13
2023-03-26T09:33:47.714Z,29.83
2023-03-26T09:36:38.187Z,29.80
2023-03-26T09:39:08.751Z,29.89
2023-03-26T09:41:44.002Z,27.15
2023-03-26T09:44:35.700Z,29.91
2023-03-26T09:47:40.330Z,27.92
2023-03-26T09:50:40.244Z,25.92
2023-03-26T09:53:25.364Z,26.85
2023-03-26T09:56:10.980Z,27.88
2023-03-26T09:58:59.774Z,28.17
2023-03-26T10:01:40.653Z,26.96
2023-03-26T10:04:27.364Z,27.24
2023-03-26T10:07:07.857Z,28.38
2023-03-26T10:09:56.723Z,25.96
2023-03-26T10:12:44.432Z,28.29
2023-03-26T10:15:58.703Z,26.92
2023-03-26T10:19:08.860Z,27.78
2023-03-26T10:21:55.220Z,27.99
2023-03-26T10:24:33.972Z,28.11
2023-03-26T10:27:25.496Z,28.08
2023-03-26T10:29:52.239Z,26.74
2023-03-26T10:32:34.068Z,27.50
2023-03-26T10:35:09.938Z,25.94
2023-03-26T10:37:43.558Z,26.16
2023-03-26T10:40:19.273Z,27.41
2023-03-26T10:43:23.215Z,26.53
2023-03-26T10:46:01.594Z,27.21
2023-03-26T10:48:47.755Z,26.65
2023-03-26T10:51:29.582Z,25.16
2023-03-26T10:54:24.721Z,25.63
2023-03-26T10:56:52.425Z,25.12
2023-03-26T10:59:19.305Z,25.34
2023-03-26T11:02:30.092Z,26.58
2023-03-26T11:05:09.118Z,26.07
2023-03-26T11:07:43.947Z,24.26
2023-03-26T11:10:26.023Z,24.66
2023-03-26T11:13:20.578Z,24.21
2023-03-26T11:16:09.769Z,25.88
2023-03-26T11:18:57.838Z,24.50
2023-03-26T11:21:32.471Z,25.54
2023-03-26T11:24:08.239Z,25.69
2023-03-26T11:27:15.298Z,26.32
2023-03-26T11:30:06.233Z,26.70
2023-03-26T11:32:43.112Z,25.45
2023-03-26T11:35:42.326Z,25.12
2023-03-26T11:38:40.253Z,26.48
2023-03-26T11:41:16.861Z,25.39
2023-03-26T11:43:56.423Z,25.37
2023-03-26T11:46:24.855Z,25.49
2023-03-26T11:48:59.948Z,25.19
2023-03-26T11:51:33.693Z,26.52
2023-03-26T11:54:01.792Z,26.38
2023-03-26T11:57:04.905Z,27.15
2023-03-26T11:59:57.645Z,26.66
2023-03-26T12:02:25.005Z,27.40
2023-03-26T12:04:56.074Z,25.40
2023-03-26T12:07:31.826Z,27.69
2023-03-26T12:10:18.117Z,26.39
2023-03-26T12:12:47.231Z,25.90
2023-03-26T12:15:16.265Z,28.77
2023-03-26T12:17:43.301Z,25.13
2023-03-26T12:20:32.755Z,26.07
2023-03-26T12:23:05.251Z,25.85
2023-03-26T12:25:38.653Z,27.64
2023-03-26T12:28:18.089Z,28.19
2023-03-26T12:30:58.375Z,27.83
2023-03-26T12:33:28.245Z,28.91
2023-03-26T12:36:00.752Z,29.03
2023-03-26T12:38:35.915Z,29.02
2023-03-26T12:41:05.885Z,29.54
2023-03-26T12:44:51.245Z,28.97
2023-03-26T12:47:46.201Z,28.07
2023-03-26T12:49:23.165Z,30.66
2023-03-26T12:51:56.929Z,29.13
2023-03-26T12:54:54.179Z,26.96
2023-03-26T12:57:25.062Z,28.06
2023-03-26T13:00:25.641Z,26.25
2023-03-26T13:03:11.489Z,28.34
2023-03-26T13:05:51.228Z,28.16
2023-03-26T13:08:39.650Z,29.43
2023-03-26T13:11:06.394Z,27.31
2023-03-26T13:14:02.120Z,28.09
2023-03-26T13:16:47.215Z,27.96
2023-03-26T13:19:40.556Z,29.42
2023-03-26T13:22:15.293Z,29.04
2023-03-26T13:25:19.044Z,29.81
2023-03-26T13:27:48.456Z,29.18
2023-03-26T13:30:42.712Z,30.40
2023-03-26T13:33:21.813Z,30.32
2023-03-26T13:36:06.553Z,30.09
2023-03-26T13:39:03.412Z,31.02
2023-03-26T13:41:57.681Z,32.74
2023-03-26T13:44:45.962Z,31.92
2023-03-26T13:47:27.710Z,44.19
2023-03-26T13:50:00.655Z,44.59
2023-03-26T13:52:37.978Z,46.64
2023-03-26T13:55:37.400Z,48.74
2023-03-26T13:58:22.537Z,48.33
2023-03-26T14:00:49.149Z,51.72
2023-03-26T14:03:31.794Z,43.09
2023-03-26T14:06:04.437Z,55.04
2023-03-26T14:08:38.446Z,58.15
2023-03-26T14:11:31.860Z,63.96
2023-03-26T14:14:11.354Z,68.04
2023-03-26T14:16:48.348Z,74.02
2023-03-26T14:20:05.420Z,77.06
2023-03-26T14:23:09.926Z,85.98
2023-03-26T14:25:50.397Z,86.80
2023-03-26T14:28:20.068Z,96.60
2023-03-26T14:31:30.128Z,98.29
2023-03-26T14:33:57.158Z,98.17
2023-03-26T14:36:49.864Z,100.00
2023-03-26T14:39:19.356Z,100.00
2023-03-26T14:41:53.316Z,100.00
2023-03-26T14:44:56.509Z,100.00
2023-03-26T14:47:26.681Z,100.00
2023-03-26T14:50:20.552Z,100.00
2023-03-26T14:52:52.239Z,100.00
2023-03-26T14:55:58.811Z,100.00
2023-03-26T14:58:50.837Z,100.00
2023-03-26T15:01:25.368Z,100.00
2023-03-26T15:04:10.972Z,100.00
2023-03-26T15:07:04.980Z,100.00
2023-03-26T15:09:53.343Z,100.00
2023-03-26T15:12:41.851Z,100.00
2023-03-26T15:15:34.669Z,100.00
2023-03-26T15:18:20.039Z,100.00
2023-03-26T15:20:56.232Z,100.00
2023-03-26T15:23:47.325Z,100.00
2023-03-26T15:26:45.494Z,100.00
2023-03-26T15:29:30.765Z,100.00
2023-03-26T15:32:26.072Z,100.00
2023-03-26T15:35:32.289Z,100.00
2023-03-26T15:38:21.813Z,100.00
2023-03-26T15:41:19.595Z,100.00
2023-03-26T15:44:24.216Z,100.00
2023-03-26T15:47:23.014Z,100.00
2023-03-26T15:49:59.209Z,100.00
2023-03-26T15:52:38.751Z,100.00
2023-03-26T15:55:21.286Z,100.00
2023-03-26T15:58:12.975Z,100.00
2023-03-26T16:01:10.668Z,100.00
2023-03-26T16:03:50.864Z,100.00
2023-03-26T16:06:32.925Z,100.00
2023-03-26T16:09:18.331Z,100.00
2023-03-26T16:11:54.099Z,100.00
2023-03-26T16:14:43.106Z,100.00
2023-03-26T16:17:27.835Z,100.00
2023-03-26T16:20:33.435Z,100.00
2023-03-26T16:23:04.634Z,100.00
2023-03-26T16:25:53.200Z,100.00
2023-03-26T16:28:28.427Z,100.00
2023-03-26T16:31:36.831Z,100.00
2023-03-26T16:34:09.332Z,100.00
2023-03-26T16:36:44.678Z,100.00
2023-03-26T16:39:18.889Z,100.00
2023-03-26T16:41:47.212Z,100.00
2023-03-26T16:44:19.650Z,100.00
2023-03-26T16:47:29.887Z,100.00
2023-03-26T16:50:24.580Z,100.00
2023-03-26T16:53:09.413Z,100.00
2023-03-26T16:55:38.820Z,100.00
2023-03-26T16:58:22.078Z,100.00
2023-03-26T17:00:52.483Z,100.00
2023-03-26T17:03:29.215Z,100.00
2023-03-26T17:05:56.701Z,100.00
2023-03-26T17:08:48.223Z,100.00
2023-03-26T17:11:24.350Z,100.00
2023-03-26T17:14:03.605Z,100.00
2023-03-26T17:16:43.410Z,100.00
2023-03-26T17:19:34.763Z,100.00
2023-03-26T17:22:32.689Z,100.00
2023-03-26T17:25:28.777Z,100.00
2023-03-26T17:28:07.282Z,100.00
2023-03-26T17:31:04.659Z,100.00
2023-03-26T17:33:34.759Z,100.00
2023-03-26T17:36:13.883Z,100.00
2023-03-26T17:38:40.818Z,100.00
2023-03-26T17:41:17.457Z,100.00
2023-03-26T17:43:52.300Z,100.00
2023-03-26T17:46:25.136Z,100.00
2023-03-26T17:49:16.723Z,100.00
2023-03-26T17:51:58.478Z,100.00
2023-03-26T17:54:45.678Z,100.00
2023-03-26T17:57:42.062Z,100.00
2023-03-26T18:00:18.342Z,100.00
2023-03-26T18:02:54.159Z,100.00
2023-03-26T18:05:22.915Z,100.00
2023-03-26T18:08:13.474Z,100.00
2023-03-26T18:11:02.409Z,100.00
2023-03-26T18:13:57.028Z,100.00
2023-03-26T18:16:32.112Z,100.00
2023-03-26T18:18:59.704Z,100.00
2023-03-26T18:21:38.319Z,100.00
2023-03-26T18:24:08.843Z,100.00
2023-03-26T18:26:47.433Z,100.00
2023-03-26T18:29:28.572Z,100.00
2023-03-26T18:32:17.478Z,100.00
2023-03-26T18:34:50.135Z,100.00
2023-03-26T18:37:34.872Z,100.00
2023-03-26T18:40:10.183Z,100.00
2023-03-26T18:42:37.517Z,100.00
2023-03-26T18:45:09.559Z,100.00
2023-03-26T18:47:38.273Z,100.00
2023-03-26T18:50:05.588Z,100.00
2023-03-26T18:52:32.582Z,100.00
2023-03-26T18:55:01.822Z,100.00
2023-03-26T18:57:29.901Z,100.00
2023-03-26T19:00:10.264Z,100.00
2023-03-26T19:02:39.097Z,100.00
2023-03-26T19:05:07.365Z,100.00
2023-03-26T19:07:36.004Z,100.00
2023-03-26T19:10:02.853Z,100.00
2023-03-26T19:12:33.260Z,100.00
2023-03-26T19:15:13.068Z,100.00
2023-03-26T19:17:53.420Z,100.00
2023-03-26T19:20:24.647Z,100.00
2023-03-26T19:22:52.165Z,100.00
2023-03-26T19:25:29.930Z,100.00
2023-03-26T19:27:57.000Z,100.00
2023-03-26T19:30:31.828Z,100.00
2023-03-26T19:33:13.029Z,100.00
2023-03-26T19:35:42.397Z,100.00
2023-03-26T19:38:44.199Z,100.00
2023-03-26T19:41:43.962Z,100.00
2023-03-26T19:44:21.424Z,100.00
2023-03-26T19:46:53.930Z,100.00
2023-03-26T19:49:33.321Z,100.00
2023-03-26T19:52:05.572Z,100.00
2023-03-26T19:54:32.491Z,100.00
2023-03-26T19:57:00.978Z,100.00
2023-03-26T19:59:27.795Z,100.00
2023-03-26T20:01:54.508Z,100.00
2023-03-26T20:04:21.354Z,100.00
2023-03-26T20:06:49.523Z,100.00
2023-03-26T20:09:16.759Z,100.00
2023-03-26T20:11:43.581Z,100.00
2023-03-26T20:14:25.898Z,100.00
2023-03-26T20:16:53.124Z,100.00
2023-03-26T20:19:20.619Z,100.00
2023-03-26T20:21:47.604Z,100.00
2023-03-26T20:24:17.119Z,100.00
2023-03-26T20:26:46.228Z,100.00
2023-03-26T20:29:14.268Z,100.00
2023-03-26T20:31:42.138Z,100.00
2023-03-26T20:34:15.162Z,100.00
2023-03-26T20:36:41.969Z,100.00
2023-03-26T20:39:09.698Z,100.00
2023-03-26T20:41:43.372Z,100.00
2023-03-26T20:44:16.086Z,100.00
2023-03-26T20:46:44.388Z,100.00
2023-03-26T20:49:12.233Z,100.00
2023-03-26T20:51:42.021Z,100.00
2023-03-26T20:54:17.890Z,100.00
2023-03-26T20:56:45.722Z,100.00
2023-03-26T20:59:17.968Z,100.00
2023-03-26T21:01:47.525Z,100.00
2023-03-26T21:04:16.302Z,100.00
2023-03-26T21:06:43.687Z,100.00
2023-03-26T21:09:17.834Z,100.00
2023-03-26T21:12:05.152Z,100.00
2023-03-26T21:14:44.322Z,100.00
2023-03-26T21:17:18.078Z,100.00
2023-03-26T21:19:45.555Z,100.00
2023-03-26T21:22:32.561Z,100.00
2023-03-26T21:25:17.379Z,100.00
2023-03-26T21:28:02.584Z,100.00
2023-03-26T21:30:29.698Z,100.00
2023-03-26T21:32:56.422Z,100.00
2023-03-26T21:35:23.780Z,100.00
2023-03-26T21:37:50.973Z,100.00
2023-03-26T21:40:19.882Z,100.00
2023-03-26T21:42:52.160Z,100.00
2023-03-26T21:45:20.066Z,100.00
2023-03-26T21:47:47.742Z,100.00
2023-03-26T21:50:18.045Z,100.00
2023-03-26T21:52:48.453Z,100.00
2023-03-26T21:55:17.853Z,100.00
2023-03-26T21:58:04.758Z,100.00
2023-03-26T22:00:55.088Z,100.00
2023-03-26T22:03:33.147Z,100.00
2023-03-26T22:06:16.181Z,100.00
2023-03-26T22:08:43.112Z,100.00
2023-03-26T22:11:12.278Z,100.00
2023-03-26T22:13:39.222Z,100.00
2023-03-26T22:16:08.313Z,100.00
2023-03-26T22:18:35.290Z,100.00
2023-03-26T22:21:02.573Z,100.00
2023-03-26T22:23:36.131Z,100.00
2023-03-26T22:26:04.397Z,100.00
2023-03-26T22:28:31.295Z,100.00
2023-03-26T22:30:58.537Z,100.00
2023-03-26T22:33:25.655Z,100.00
2023-03-26T22:35:52.561Z,100.00
2023-03-26T22:38:19.384Z,100.00
2023-03-26T22:40:55.181Z,100.00
2023-03-26T22:43:22.085Z,100.00
2023-03-26T22:45:53.785Z,100.00
2023-03-26T22:48:24.665Z,100.00
2023-03-26T22:51:03.132Z,100.00
2023-03-26T22:53:30.936Z,100.00
2023-03-26T22:55:59.008Z,100.00
2023-03-26T22:58:28.386Z,100.00
2023-03-26T23:01:08.337Z,100.00
2023-03-26T23:03:36.943Z,100.00
2023-03-26T23:06:07.405Z,100.00
2023-03-26T23:08:35.261Z,100.00
2023-03-26T23:11:02.390Z,100.00
2023-03-26T23:13:29.043Z,100.00
2023-03-26T23:15:57.268Z,100.00
2023-03-26T23:18:24.379Z,100.00
2023-03-26T23:20:54.985Z,100.00
2023-03-26T23:23:27.471Z,100.00
2023-03-26T23:25:55.118Z,100.00
2023-03-26T23:28:24.102Z,100.00
2023-03-26T23:30:52.579Z,100.00
2023-03-26T23:33:30.314Z,100.00
2023-03-26T23:36:00.050Z,100.00
2023-03-26T23:38:43.572Z,100.00
2023-03-26T23:41:15.274Z,100.00
2023-03-26T23:43:54.248Z,100.00
2023-03-26T23:46:23.598Z,100.00
2023-03-26T23:48:55.116Z,100.00
2023-03-26T23:51:22.348Z,100.00
2023-03-26T23:53:49.790Z,100.00
2023-03-26T23:56:17.232Z,100.00
2023-03-26T23:58:44.126Z,100.00
